sensor_id;sensor_type;location;lat;lon;timestamp;pressure;altitude;pressure_sealevel;temperature;humidity
70758;BME280;59316;52.964;7.102;2022-10-16T00:00:54;100873.44;;;10.62;nan
70758;BME280;59316;52.964;7.102;2022-10-16T00:05:59;100871.03;;;10.59;nan
70758;BME280;59316;52.964;7.102;2022-10-16T00:11:06;100864.22;;;10.69;nan
70758;BME280;59316;52.964;7.102;2022-10-16T00:16:10;100867.38;;;10.74;nan
70758;BME280;59316;52.964;7.102;2022-10-16T00:21:21;100870.81;;;10.75;nan
70758;BME280;59316;52.964;7.102;2022-10-16T00:26:24;100871.22;;;10.69;nan
70758;BME280;59316;52.964;7.102;2022-10-16T00:31:27;100861.78;;;10.79;nan
70758;BME280;59316;52.964;7.102;2022-10-16T00:36:30;100864.63;;;10.76;nan
70758;BME280;59316;52.964;7.102;2022-10-16T00:41:33;100861.16;;;10.75;nan
70758;BME280;59316;52.964;7.102;2022-10-16T00:46:37;100861.06;;;10.77;nan
70758;BME280;59316;52.964;7.102;2022-10-16T00:51:43;100868.41;;;10.72;nan
70758;BME280;59316;52.964;7.102;2022-10-16T00:56:47;100868.72;;;10.80;nan
70758;BME280;59316;52.964;7.102;2022-10-16T01:01:51;100876.28;;;10.72;nan
70758;BME280;59316;52.964;7.102;2022-10-16T01:12:43;100885.50;;;10.52;nan
70758;BME280;59316;52.964;7.102;2022-10-16T01:18:00;100878.47;;;10.52;nan
70758;BME280;59316;52.964;7.102;2022-10-16T01:23:28;100875.53;;;10.44;nan
70758;BME280;59316;52.964;7.102;2022-10-16T01:33:51;100889.56;;;10.43;nan
70758;BME280;59316;52.964;7.102;2022-10-16T01:39:02;100880.97;;;10.54;nan
70758;BME280;59316;52.964;7.102;2022-10-16T01:44:08;100878.78;;;10.60;nan
70758;BME280;59316;52.964;7.102;2022-10-16T01:49:13;100875.31;;;10.86;nan
70758;BME280;59316;52.964;7.102;2022-10-16T01:54:16;100870.69;;;10.89;nan
70758;BME280;59316;52.964;7.102;2022-10-16T01:59:24;100872.50;;;10.89;nan
70758;BME280;59316;52.964;7.102;2022-10-16T02:04:31;100879.22;;;10.93;nan
70758;BME280;59316;52.964;7.102;2022-10-16T02:09:34;100866.94;;;10.93;nan
70758;BME280;59316;52.964;7.102;2022-10-16T02:14:38;100863.06;;;10.86;nan
70758;BME280;59316;52.964;7.102;2022-10-16T02:19:41;100854.66;;;10.94;nan
70758;BME280;59316;52.964;7.102;2022-10-16T02:24:54;100850.75;;;10.99;nan
70758;BME280;59316;52.964;7.102;2022-10-16T02:30:05;100843.47;;;11.16;nan
70758;BME280;59316;52.964;7.102;2022-10-16T02:35:09;100853.34;;;11.25;nan
70758;BME280;59316;52.964;7.102;2022-10-16T02:40:12;100863.19;;;11.35;nan
70758;BME280;59316;52.964;7.102;2022-10-16T02:45:15;100859.00;;;11.32;nan
70758;BME280;59316;52.964;7.102;2022-10-16T02:50:17;100864.75;;;11.37;nan
70758;BME280;59316;52.964;7.102;2022-10-16T02:55:19;100871.47;;;11.41;nan
70758;BME280;59316;52.964;7.102;2022-10-16T03:00:21;100872.09;;;11.45;nan
70758;BME280;59316;52.964;7.102;2022-10-16T03:05:24;100884.91;;;11.37;nan
70758;BME280;59316;52.964;7.102;2022-10-16T03:10:26;100881.97;;;11.41;nan
70758;BME280;59316;52.964;7.102;2022-10-16T03:15:29;100890.47;;;11.45;nan
70758;BME280;59316;52.964;7.102;2022-10-16T03:20:31;100893.31;;;11.42;nan
70758;BME280;59316;52.964;7.102;2022-10-16T03:25:33;100900.38;;;11.41;nan
70758;BME280;59316;52.964;7.102;2022-10-16T03:30:36;100909.53;;;11.36;nan
70758;BME280;59316;52.964;7.102;2022-10-16T03:35:38;100897.72;;;11.41;nan
70758;BME280;59316;52.964;7.102;2022-10-16T03:40:40;100902.31;;;11.51;nan
70758;BME280;59316;52.964;7.102;2022-10-16T03:45:42;100908.22;;;11.54;nan
70758;BME280;59316;52.964;7.102;2022-10-16T03:50:45;100925.66;;;11.55;nan
70758;BME280;59316;52.964;7.102;2022-10-16T03:55:47;100913.16;;;11.59;nan
70758;BME280;59316;52.964;7.102;2022-10-16T04:00:49;100902.31;;;11.51;nan
70758;BME280;59316;52.964;7.102;2022-10-16T04:05:51;100901.00;;;11.45;nan
70758;BME280;59316;52.964;7.102;2022-10-16T04:10:54;100905.00;;;11.38;nan
70758;BME280;59316;52.964;7.102;2022-10-16T04:15:56;100903.66;;;11.19;nan
70758;BME280;59316;52.964;7.102;2022-10-16T04:21:05;100912.78;;;11.13;nan
70758;BME280;59316;52.964;7.102;2022-10-16T04:26:10;100928.44;;;11.02;nan
70758;BME280;59316;52.964;7.102;2022-10-16T04:31:12;100923.53;;;11.10;nan
70758;BME280;59316;52.964;7.102;2022-10-16T04:36:14;100933.78;;;11.26;nan
70758;BME280;59316;52.964;7.102;2022-10-16T04:41:17;100948.09;;;11.09;nan
70758;BME280;59316;52.964;7.102;2022-10-16T04:46:19;100956.78;;;10.84;nan
70758;BME280;59316;52.964;7.102;2022-10-16T04:51:21;100957.25;;;11.17;nan
70758;BME280;59316;52.964;7.102;2022-10-16T04:56:23;100969.50;;;11.16;nan
70758;BME280;59316;52.964;7.102;2022-10-16T05:01:26;100971.19;;;11.17;nan
70758;BME280;59316;52.964;7.102;2022-10-16T05:06:28;100974.47;;;11.21;nan
70758;BME280;59316;52.964;7.102;2022-10-16T05:11:31;100975.63;;;11.29;nan
70758;BME280;59316;52.964;7.102;2022-10-16T05:16:33;100979.19;;;11.28;nan
70758;BME280;59316;52.964;7.102;2022-10-16T05:21:35;100986.31;;;11.26;nan
70758;BME280;59316;52.964;7.102;2022-10-16T05:26:37;100996.28;;;11.34;nan
70758;BME280;59316;52.964;7.102;2022-10-16T05:31:40;101012.03;;;11.34;nan
70758;BME280;59316;52.964;7.102;2022-10-16T05:36:42;101010.06;;;11.38;nan
70758;BME280;59316;52.964;7.102;2022-10-16T05:41:44;101009.88;;;11.28;nan
70758;BME280;59316;52.964;7.102;2022-10-16T05:46:47;101012.03;;;11.21;nan
70758;BME280;59316;52.964;7.102;2022-10-16T05:51:49;101018.16;;;11.22;nan
70758;BME280;59316;52.964;7.102;2022-10-16T05:56:51;101016.59;;;11.32;nan
70758;BME280;59316;52.964;7.102;2022-10-16T06:01:53;101028.34;;;11.26;nan
70758;BME280;59316;52.964;7.102;2022-10-16T06:06:58;101034.63;;;11.24;nan
70758;BME280;59316;52.964;7.102;2022-10-16T06:12:01;101037.25;;;11.24;nan
70758;BME280;59316;52.964;7.102;2022-10-16T06:17:04;101050.50;;;11.35;nan
70758;BME280;59316;52.964;7.102;2022-10-16T06:22:06;101048.41;;;11.27;nan
70758;BME280;59316;52.964;7.102;2022-10-16T06:27:09;101048.50;;;11.26;nan
70758;BME280;59316;52.964;7.102;2022-10-16T06:32:11;101055.34;;;11.28;nan
70758;BME280;59316;52.964;7.102;2022-10-16T06:37:14;101071.84;;;11.43;nan
70758;BME280;59316;52.964;7.102;2022-10-16T06:42:16;101065.56;;;11.59;nan
70758;BME280;59316;52.964;7.102;2022-10-16T06:47:19;101090.25;;;11.69;nan
70758;BME280;59316;52.964;7.102;2022-10-16T06:52:22;101094.75;;;11.80;nan
70758;BME280;59316;52.964;7.102;2022-10-16T06:57:24;101104.97;;;11.98;nan
70758;BME280;59316;52.964;7.102;2022-10-16T07:02:27;101104.13;;;12.10;nan
70758;BME280;59316;52.964;7.102;2022-10-16T07:07:29;101103.69;;;12.16;nan
70758;BME280;59316;52.964;7.102;2022-10-16T07:12:31;101112.63;;;12.26;nan
70758;BME280;59316;52.964;7.102;2022-10-16T07:17:34;101121.34;;;12.27;nan
70758;BME280;59316;52.964;7.102;2022-10-16T07:22:36;101134.16;;;12.32;nan
70758;BME280;59316;52.964;7.102;2022-10-16T07:27:38;101133.44;;;12.29;nan
70758;BME280;59316;52.964;7.102;2022-10-16T07:32:40;101149.41;;;12.39;nan
70758;BME280;59316;52.964;7.102;2022-10-16T07:37:46;101157.69;;;12.46;nan
70758;BME280;59316;52.964;7.102;2022-10-16T07:42:48;101160.63;;;12.54;nan
70758;BME280;59316;52.964;7.102;2022-10-16T07:47:50;101164.69;;;12.71;nan
70758;BME280;59316;52.964;7.102;2022-10-16T07:52:53;101173.38;;;12.85;nan
70758;BME280;59316;52.964;7.102;2022-10-16T07:57:55;101173.81;;;13.03;nan
70758;BME280;59316;52.964;7.102;2022-10-16T08:02:58;101184.09;;;13.19;nan
70758;BME280;59316;52.964;7.102;2022-10-16T08:08:01;101166.19;;;13.35;nan
70758;BME280;59316;52.964;7.102;2022-10-16T08:13:04;101170.94;;;13.30;nan
70758;BME280;59316;52.964;7.102;2022-10-16T08:18:06;101163.47;;;13.37;nan
70758;BME280;59316;52.964;7.102;2022-10-16T08:23:12;101189.47;;;13.41;nan
70758;BME280;59316;52.964;7.102;2022-10-16T08:28:14;101213.81;;;13.56;nan
70758;BME280;59316;52.964;7.102;2022-10-16T08:33:16;101217.22;;;13.70;nan
70758;BME280;59316;52.964;7.102;2022-10-16T08:38:19;101216.38;;;13.69;nan
70758;BME280;59316;52.964;7.102;2022-10-16T08:43:43;101220.38;;;13.75;nan
70758;BME280;59316;52.964;7.102;2022-10-16T08:48:52;101224.63;;;14.00;nan
70758;BME280;59316;52.964;7.102;2022-10-16T08:53:57;101224.88;;;14.20;nan
70758;BME280;59316;52.964;7.102;2022-10-16T08:59:00;101242.25;;;14.22;nan
70758;BME280;59316;52.964;7.102;2022-10-16T09:15:13;101266.97;;;15.01;nan
70758;BME280;59316;52.964;7.102;2022-10-16T09:25:39;101283.91;;;14.98;nan
70758;BME280;59316;52.964;7.102;2022-10-16T09:30:44;101280.19;;;15.77;nan
70758;BME280;59316;52.964;7.102;2022-10-16T09:35:47;101282.88;;;15.66;nan
70758;BME280;59316;52.964;7.102;2022-10-16T09:40:51;101293.16;;;16.22;nan
70758;BME280;59316;52.964;7.102;2022-10-16T09:46:03;101305.03;;;16.80;nan
70758;BME280;59316;52.964;7.102;2022-10-16T09:51:14;101306.44;;;16.84;nan
70758;BME280;59316;52.964;7.102;2022-10-16T09:56:32;101313.81;;;17.61;nan
70758;BME280;59316;52.964;7.102;2022-10-16T10:01:38;101327.66;;;17.74;nan
70758;BME280;59316;52.964;7.102;2022-10-16T10:06:53;101323.47;;;17.42;nan
70758;BME280;59316;52.964;7.102;2022-10-16T10:12:02;101332.72;;;17.67;nan
70758;BME280;59316;52.964;7.102;2022-10-16T10:17:20;101327.91;;;18.30;nan
70758;BME280;59316;52.964;7.102;2022-10-16T10:22:39;101336.00;;;18.28;nan
70758;BME280;59316;52.964;7.102;2022-10-16T10:59:32;101375.28;;;17.06;nan
70758;BME280;59316;52.964;7.102;2022-10-16T11:10:51;101401.25;;;17.62;nan
70758;BME280;59316;52.964;7.102;2022-10-16T11:15:59;101398.66;;;17.22;nan
70758;BME280;59316;52.964;7.102;2022-10-16T11:21:10;101398.72;;;18.59;nan
70758;BME280;59316;52.964;7.102;2022-10-16T11:26:19;101407.47;;;19.26;nan
70758;BME280;59316;52.964;7.102;2022-10-16T11:31:36;101417.34;;;19.62;nan
70758;BME280;59316;52.964;7.102;2022-10-16T11:36:44;101411.72;;;19.37;nan
70758;BME280;59316;52.964;7.102;2022-10-16T11:42:10;101403.88;;;19.18;nan
70758;BME280;59316;52.964;7.102;2022-10-16T11:47:50;101417.78;;;19.85;nan
70758;BME280;59316;52.964;7.102;2022-10-16T12:04:14;101447.56;;;18.38;nan
70758;BME280;59316;52.964;7.102;2022-10-16T12:09:25;101468.84;;;19.05;nan
70758;BME280;59316;52.964;7.102;2022-10-16T12:14:40;101463.22;;;18.22;nan
70758;BME280;59316;52.964;7.102;2022-10-16T12:20:22;101457.78;;;18.13;nan
70758;BME280;59316;52.964;7.102;2022-10-16T12:25:32;101481.53;;;16.81;nan
70758;BME280;59316;52.964;7.102;2022-10-16T12:30:36;101478.91;;;16.81;nan
70758;BME280;59316;52.964;7.102;2022-10-16T12:35:43;101487.72;;;16.82;nan
70758;BME280;59316;52.964;7.102;2022-10-16T12:41:03;101491.59;;;16.78;nan
70758;BME280;59316;52.964;7.102;2022-10-16T13:13:05;101508.88;;;19.69;nan
70758;BME280;59316;52.964;7.102;2022-10-16T13:18:16;101508.53;;;20.10;nan
70758;BME280;59316;52.964;7.102;2022-10-16T13:28:53;101540.22;;;19.00;nan
70758;BME280;59316;52.964;7.102;2022-10-16T13:34:00;101554.47;;;18.11;nan
70758;BME280;59316;52.964;7.102;2022-10-16T13:39:15;101550.34;;;17.25;nan
70758;BME280;59316;52.964;7.102;2022-10-16T13:44:21;101557.81;;;18.13;nan
70758;BME280;59316;52.964;7.102;2022-10-16T13:49:23;101561.63;;;18.20;nan
70758;BME280;59316;52.964;7.102;2022-10-16T13:54:26;101571.94;;;16.99;nan
70758;BME280;59316;52.964;7.102;2022-10-16T13:59:36;101569.91;;;16.70;nan
70758;BME280;59316;52.964;7.102;2022-10-16T14:04:39;101576.44;;;17.51;nan
70758;BME280;59316;52.964;7.102;2022-10-16T14:09:41;101573.63;;;17.74;nan
70758;BME280;59316;52.964;7.102;2022-10-16T14:14:46;101569.19;;;18.64;nan
70758;BME280;59316;52.964;7.102;2022-10-16T14:19:51;101563.19;;;18.91;nan
70758;BME280;59316;52.964;7.102;2022-10-16T14:24:59;101568.50;;;18.72;nan
70758;BME280;59316;52.964;7.102;2022-10-16T14:40:34;101602.53;;;17.25;nan
70758;BME280;59316;52.964;7.102;2022-10-16T14:45:38;101614.06;;;16.70;nan
70758;BME280;59316;52.964;7.102;2022-10-16T14:50:43;101621.19;;;16.26;nan
70758;BME280;59316;52.964;7.102;2022-10-16T14:55:47;101619.50;;;16.02;nan
70758;BME280;59316;52.964;7.102;2022-10-16T15:00:49;101631.53;;;15.72;nan
70758;BME280;59316;52.964;7.102;2022-10-16T15:05:51;101631.34;;;15.51;nan
70758;BME280;59316;52.964;7.102;2022-10-16T15:10:53;101646.22;;;15.29;nan
70758;BME280;59316;52.964;7.102;2022-10-16T15:15:56;101633.03;;;15.05;nan
70758;BME280;59316;52.964;7.102;2022-10-16T15:20:58;101623.97;;;14.85;nan
70758;BME280;59316;52.964;7.102;2022-10-16T15:26:00;101628.00;;;14.78;nan
70758;BME280;59316;52.964;7.102;2022-10-16T15:31:04;101630.25;;;14.71;nan
70758;BME280;59316;52.964;7.102;2022-10-16T15:36:06;101632.19;;;14.56;nan
70758;BME280;59316;52.964;7.102;2022-10-16T15:41:08;101654.22;;;14.31;nan
70758;BME280;59316;52.964;7.102;2022-10-16T15:46:11;101643.31;;;13.98;nan
70758;BME280;59316;52.964;7.102;2022-10-16T15:51:15;101651.94;;;13.62;nan
70758;BME280;59316;52.964;7.102;2022-10-16T15:56:17;101639.34;;;13.26;nan
70758;BME280;59316;52.964;7.102;2022-10-16T16:01:20;101655.72;;;13.04;nan
70758;BME280;59316;52.964;7.102;2022-10-16T16:06:23;101648.28;;;12.84;nan
70758;BME280;59316;52.964;7.102;2022-10-16T16:11:25;101654.19;;;12.60;nan
70758;BME280;59316;52.964;7.102;2022-10-16T16:16:27;101642.38;;;12.38;nan
70758;BME280;59316;52.964;7.102;2022-10-16T16:21:29;101671.25;;;12.11;nan
70758;BME280;59316;52.964;7.102;2022-10-16T16:26:32;101671.22;;;11.82;nan
70758;BME280;59316;52.964;7.102;2022-10-16T16:31:34;101668.06;;;11.61;nan
70758;BME280;59316;52.964;7.102;2022-10-16T16:36:36;101685.03;;;11.41;nan
70758;BME280;59316;52.964;7.102;2022-10-16T16:41:39;101692.19;;;11.23;nan
70758;BME280;59316;52.964;7.102;2022-10-16T16:46:43;101689.69;;;11.05;nan
70758;BME280;59316;52.964;7.102;2022-10-16T16:51:45;101700.53;;;10.83;nan
70758;BME280;59316;52.964;7.102;2022-10-16T16:56:47;101720.50;;;10.70;nan
70758;BME280;59316;52.964;7.102;2022-10-16T17:01:50;101732.34;;;10.61;nan
70758;BME280;59316;52.964;7.102;2022-10-16T17:06:58;101735.03;;;10.43;nan
70758;BME280;59316;52.964;7.102;2022-10-16T17:12:00;101738.06;;;10.36;nan
70758;BME280;59316;52.964;7.102;2022-10-16T17:17:03;101744.53;;;10.28;nan
70758;BME280;59316;52.964;7.102;2022-10-16T17:22:05;101760.69;;;10.21;nan
70758;BME280;59316;52.964;7.102;2022-10-16T17:27:08;101770.47;;;10.17;nan
70758;BME280;59316;52.964;7.102;2022-10-16T17:32:10;101770.41;;;10.01;nan
70758;BME280;59316;52.964;7.102;2022-10-16T17:37:12;101771.09;;;9.87;nan
70758;BME280;59316;52.964;7.102;2022-10-16T17:42:18;101779.88;;;9.68;nan
70758;BME280;59316;52.964;7.102;2022-10-16T17:47:20;101793.03;;;9.49;nan
70758;BME280;59316;52.964;7.102;2022-10-16T17:52:23;101801.09;;;9.27;nan
70758;BME280;59316;52.964;7.102;2022-10-16T17:57:25;101797.50;;;9.11;nan
70758;BME280;59316;52.964;7.102;2022-10-16T18:02:28;101805.91;;;9.17;nan
70758;BME280;59316;52.964;7.102;2022-10-16T18:07:31;101818.56;;;9.08;nan
70758;BME280;59316;52.964;7.102;2022-10-16T18:12:34;101822.31;;;9.02;nan
70758;BME280;59316;52.964;7.102;2022-10-16T18:17:36;101832.78;;;9.02;nan
70758;BME280;59316;52.964;7.102;2022-10-16T18:22:39;101827.47;;;9.04;nan
70758;BME280;59316;52.964;7.102;2022-10-16T18:27:41;101824.03;;;9.03;nan
70758;BME280;59316;52.964;7.102;2022-10-16T18:32:43;101832.72;;;9.04;nan
70758;BME280;59316;52.964;7.102;2022-10-16T18:37:46;101828.91;;;9.11;nan
70758;BME280;59316;52.964;7.102;2022-10-16T18:42:48;101828.03;;;9.10;nan
70758;BME280;59316;52.964;7.102;2022-10-16T18:47:51;101837.88;;;9.05;nan
70758;BME280;59316;52.964;7.102;2022-10-16T18:52:53;101831.72;;;9.06;nan
70758;BME280;59316;52.964;7.102;2022-10-16T18:57:55;101838.09;;;9.20;nan
70758;BME280;59316;52.964;7.102;2022-10-16T19:02:57;101826.00;;;9.17;nan
70758;BME280;59316;52.964;7.102;2022-10-16T19:08:00;101834.06;;;9.12;nan
70758;BME280;59316;52.964;7.102;2022-10-16T19:13:02;101835.53;;;9.18;nan
70758;BME280;59316;52.964;7.102;2022-10-16T19:18:08;101826.69;;;9.21;nan
70758;BME280;59316;52.964;7.102;2022-10-16T19:23:11;101839.41;;;9.28;nan
70758;BME280;59316;52.964;7.102;2022-10-16T19:28:13;101859.44;;;9.29;nan
70758;BME280;59316;52.964;7.102;2022-10-16T19:33:17;101856.72;;;9.32;nan
70758;BME280;59316;52.964;7.102;2022-10-16T19:38:19;101850.59;;;9.32;nan
70758;BME280;59316;52.964;7.102;2022-10-16T19:43:21;101860.03;;;9.36;nan
70758;BME280;59316;52.964;7.102;2022-10-16T19:48:24;101858.09;;;9.40;nan
70758;BME280;59316;52.964;7.102;2022-10-16T19:53:31;101868.28;;;9.46;nan
70758;BME280;59316;52.964;7.102;2022-10-16T19:58:33;101841.53;;;9.58;nan
70758;BME280;59316;52.964;7.102;2022-10-16T20:03:36;101848.38;;;9.61;nan
70758;BME280;59316;52.964;7.102;2022-10-16T20:08:39;101865.81;;;9.62;nan
70758;BME280;59316;52.964;7.102;2022-10-16T20:13:42;101878.75;;;9.65;nan
70758;BME280;59316;52.964;7.102;2022-10-16T20:18:46;101876.06;;;9.66;nan
70758;BME280;59316;52.964;7.102;2022-10-16T20:23:49;101878.53;;;9.70;nan
70758;BME280;59316;52.964;7.102;2022-10-16T20:28:52;101877.38;;;9.75;nan
70758;BME280;59316;52.964;7.102;2022-10-16T20:33:56;101876.88;;;9.86;nan
70758;BME280;59316;52.964;7.102;2022-10-16T20:39:00;101876.44;;;9.95;nan
70758;BME280;59316;52.964;7.102;2022-10-16T20:44:03;101869.19;;;10.00;nan
70758;BME280;59316;52.964;7.102;2022-10-16T20:49:05;101863.88;;;10.02;nan
70758;BME280;59316;52.964;7.102;2022-10-16T20:54:12;101859.41;;;10.04;nan
70758;BME280;59316;52.964;7.102;2022-10-16T20:59:14;101866.19;;;10.08;nan
70758;BME280;59316;52.964;7.102;2022-10-16T21:04:17;101876.13;;;10.19;nan
70758;BME280;59316;52.964;7.102;2022-10-16T21:09:19;101885.31;;;10.28;nan
70758;BME280;59316;52.964;7.102;2022-10-16T21:14:21;101867.47;;;10.36;nan
70758;BME280;59316;52.964;7.102;2022-10-16T21:19:23;101855.03;;;10.40;nan
70758;BME280;59316;52.964;7.102;2022-10-16T21:24:25;101854.38;;;10.52;nan
70758;BME280;59316;52.964;7.102;2022-10-16T21:29:28;101849.22;;;10.51;nan
70758;BME280;59316;52.964;7.102;2022-10-16T21:34:30;101845.81;;;10.48;nan
70758;BME280;59316;52.964;7.102;2022-10-16T21:39:32;101835.28;;;10.50;nan
70758;BME280;59316;52.964;7.102;2022-10-16T21:44:34;101851.25;;;10.45;nan
70758;BME280;59316;52.964;7.102;2022-10-16T21:49:37;101839.97;;;10.43;nan
70758;BME280;59316;52.964;7.102;2022-10-16T21:54:39;101840.91;;;10.42;nan
70758;BME280;59316;52.964;7.102;2022-10-16T21:59:41;101844.53;;;10.40;nan
70758;BME280;59316;52.964;7.102;2022-10-16T22:04:43;101835.91;;;10.38;nan
70758;BME280;59316;52.964;7.102;2022-10-16T22:09:46;101829.63;;;10.40;nan
70758;BME280;59316;52.964;7.102;2022-10-16T22:14:48;101835.81;;;10.39;nan
70758;BME280;59316;52.964;7.102;2022-10-16T22:19:50;101840.22;;;10.39;nan
70758;BME280;59316;52.964;7.102;2022-10-16T22:24:52;101835.06;;;10.37;nan
70758;BME280;59316;52.964;7.102;2022-10-16T22:29:55;101817.22;;;10.44;nan
70758;BME280;59316;52.964;7.102;2022-10-16T22:34:57;101801.91;;;10.52;nan
70758;BME280;59316;52.964;7.102;2022-10-16T22:39:59;101803.38;;;10.58;nan
70758;BME280;59316;52.964;7.102;2022-10-16T22:45:02;101776.88;;;10.62;nan
70758;BME280;59316;52.964;7.102;2022-10-16T22:50:05;101779.00;;;10.56;nan
70758;BME280;59316;52.964;7.102;2022-10-16T22:55:07;101774.66;;;10.55;nan
70758;BME280;59316;52.964;7.102;2022-10-16T23:00:12;101768.50;;;10.56;nan
70758;BME280;59316;52.964;7.102;2022-10-16T23:05:15;101758.09;;;10.54;nan
70758;BME280;59316;52.964;7.102;2022-10-16T23:10:17;101758.31;;;10.49;nan
70758;BME280;59316;52.964;7.102;2022-10-16T23:15:20;101750.63;;;10.46;nan
70758;BME280;59316;52.964;7.102;2022-10-16T23:20:22;101760.19;;;10.47;nan
70758;BME280;59316;52.964;7.102;2022-10-16T23:25:25;101763.59;;;10.32;nan
70758;BME280;59316;52.964;7.102;2022-10-16T23:30:27;101784.25;;;10.38;nan
70758;BME280;59316;52.964;7.102;2022-10-16T23:35:29;101777.69;;;10.47;nan
70758;BME280;59316;52.964;7.102;2022-10-16T23:40:31;101764.44;;;10.50;nan
70758;BME280;59316;52.964;7.102;2022-10-16T23:45:34;101773.81;;;10.54;nan
70758;BME280;59316;52.964;7.102;2022-10-16T23:50:36;101777.88;;;10.60;nan
70758;BME280;59316;52.964;7.102;2022-10-16T23:55:38;101778.84;;;10.59;nan
